createdAt,value
2024-02-10T00:01:19.610Z,19.44
2024-02-10T00:03:47.026Z,19.45
2024-02-10T00:06:17.274Z,19.43
2024-02-10T00:08:45.376Z,19.40
2024-02-10T00:11:13.023Z,19.40
2024-02-10T00:13:43.100Z,19.40
2024-02-10T00:16:11.244Z,19.39
2024-02-10T00:18:38.012Z,19.37
2024-02-10T00:21:05.780Z,19.38
2024-02-10T00:23:32.416Z,19.37
2024-02-10T00:25:59.210Z,19.34
2024-02-10T00:28:26.427Z,19.35
2024-02-10T00:31:01.169Z,19.33
2024-02-10T00:33:27.941Z,19.33
2024-02-10T00:35:54.591Z,19.32
2024-02-10T00:38:22.315Z,19.30
2024-02-10T00:40:50.044Z,19.29
2024-02-10T00:43:16.963Z,19.28
2024-02-10T00:45:47.659Z,19.28
2024-02-10T00:48:14.824Z,19.27
2024-02-10T00:50:43.117Z,19.27
2024-02-10T00:53:09.849Z,19.26
2024-02-10T00:55:36.386Z,19.24
2024-02-10T00:58:05.647Z,19.24
2024-02-10T01:00:33.369Z,19.23
2024-02-10T01:03:00.087Z,19.23
2024-02-10T01:05:26.831Z,19.21
2024-02-10T01:07:53.560Z,19.22
2024-02-10T01:10:21.716Z,19.22
2024-02-10T01:12:49.086Z,19.19
2024-02-10T01:15:18.036Z,19.18
2024-02-10T01:17:47.477Z,19.17
2024-02-10T01:20:18.765Z,19.17
2024-02-10T01:22:46.574Z,19.15
2024-02-10T01:25:14.036Z,19.15
2024-02-10T01:27:45.474Z,19.15
2024-02-10T01:30:12.407Z,19.13
2024-02-10T01:32:38.987Z,19.13
2024-02-10T01:35:06.068Z,19.12
2024-02-10T01:37:32.727Z,19.12
2024-02-10T01:39:59.442Z,19.12
2024-02-10T01:42:38.919Z,19.11
2024-02-10T01:45:13.300Z,19.09
2024-02-10T01:47:44.737Z,19.09
2024-02-10T01:50:12.697Z,19.09
2024-02-10T01:52:40.503Z,19.08
2024-02-10T01:55:08.591Z,19.06
2024-02-10T01:57:35.886Z,19.07
2024-02-10T02:00:07.287Z,19.06
2024-02-10T02:02:34.712Z,19.05
2024-02-10T02:05:04.958Z,19.05
2024-02-10T02:07:33.016Z,19.04
2024-02-10T02:10:01.201Z,19.03
2024-02-10T02:12:28.639Z,19.01
2024-02-10T02:14:58.947Z,19.02
2024-02-10T02:17:26.248Z,19.00
2024-02-10T02:19:53.375Z,19.01
2024-02-10T02:22:20.644Z,19.00
2024-02-10T02:24:48.399Z,18.99
2024-02-10T02:27:15.354Z,18.98
2024-02-10T02:29:41.906Z,18.98
2024-02-10T02:32:10.181Z,18.98
2024-02-10T02:34:37.104Z,18.97
2024-02-10T02:37:04.337Z,18.95
2024-02-10T02:39:34.891Z,18.96
2024-02-10T02:42:07.093Z,18.94
2024-02-10T02:44:34.037Z,18.93
2024-02-10T02:47:06.481Z,18.95
2024-02-10T02:49:34.381Z,18.94
2024-02-10T02:52:01.079Z,18.92
2024-02-10T02:54:27.565Z,18.92
2024-02-10T02:57:01.274Z,18.92
2024-02-10T02:59:27.906Z,18.91
2024-02-10T03:01:55.425Z,18.91
2024-02-10T03:04:22.219Z,18.89
2024-02-10T03:06:51.295Z,18.89
2024-02-10T03:09:18.069Z,18.89
2024-02-10T03:11:44.637Z,18.89
2024-02-10T03:14:11.188Z,18.86
2024-02-10T03:16:40.513Z,18.86
2024-02-10T03:19:08.312Z,18.87
2024-02-10T03:21:36.809Z,18.85
2024-02-10T03:24:04.897Z,18.84
2024-02-10T03:26:38.869Z,18.84
2024-02-10T03:29:06.780Z,18.84
2024-02-10T03:31:34.046Z,18.82
2024-02-10T03:34:01.387Z,18.84
2024-02-10T03:36:28.504Z,18.82
2024-02-10T03:38:55.932Z,18.82
2024-02-10T03:41:22.757Z,18.80
2024-02-10T03:43:49.537Z,18.82
2024-02-10T03:46:16.314Z,18.81
2024-02-10T03:48:43.965Z,18.81
2024-02-10T03:51:12.425Z,18.79
2024-02-10T03:53:40.205Z,18.80
2024-02-10T03:56:10.644Z,18.79
2024-02-10T03:58:42.689Z,18.78
2024-02-10T04:01:15.227Z,18.77
2024-02-10T04:03:49.223Z,18.76
2024-02-10T04:06:17.076Z,18.75
2024-02-10T04:08:47.537Z,18.75
2024-02-10T04:11:15.018Z,18.75
2024-02-10T04:13:45.250Z,18.74
2024-02-10T04:16:13.636Z,18.73
2024-02-10T04:18:41.874Z,18.71
2024-02-10T04:21:09.647Z,18.73
2024-02-10T04:23:38.675Z,18.72
2024-02-10T04:26:08.380Z,18.71
2024-02-10T04:28:35.209Z,18.71
2024-02-10T04:31:01.806Z,18.71
2024-02-10T04:33:28.434Z,18.69
2024-02-10T04:35:55.040Z,18.69
2024-02-10T04:38:23.240Z,18.68
2024-02-10T04:40:49.873Z,18.68
2024-02-10T04:43:18.649Z,18.67
2024-02-10T04:45:45.624Z,18.68
2024-02-10T04:48:15.022Z,18.66
2024-02-10T04:50:42.423Z,18.65
2024-02-10T04:53:09.312Z,18.65
2024-02-10T04:55:37.901Z,18.64
2024-02-10T04:58:04.682Z,18.64
2024-02-10T05:00:33.469Z,18.64
2024-02-10T05:03:03.968Z,18.62
2024-02-10T05:05:30.868Z,18.63
2024-02-10T05:07:58.551Z,18.63
2024-02-10T05:10:26.012Z,18.62
2024-02-10T05:12:53.315Z,18.62
2024-02-10T05:15:24.010Z,18.60
2024-02-10T05:17:52.103Z,18.60
2024-02-10T05:20:24.669Z,18.60
2024-02-10T05:22:53.207Z,18.58
2024-02-10T05:25:22.140Z,18.60
2024-02-10T05:27:49.379Z,18.59
2024-02-10T05:30:21.938Z,18.58
2024-02-10T05:32:51.117Z,18.57
2024-02-10T05:35:19.613Z,18.58
2024-02-10T05:37:48.101Z,18.58
2024-02-10T05:40:15.873Z,18.57
2024-02-10T05:42:46.821Z,18.57
2024-02-10T05:45:15.232Z,18.56
2024-02-10T05:47:41.827Z,18.56
2024-02-10T05:50:19.336Z,18.54
2024-02-10T05:52:49.416Z,18.56
2024-02-10T05:55:22.743Z,18.54
2024-02-10T05:57:49.661Z,18.53
2024-02-10T06:00:17.049Z,18.52
2024-02-10T06:02:43.737Z,18.53
2024-02-10T06:05:12.528Z,18.54
2024-02-10T06:07:39.804Z,18.52
2024-02-10T06:10:16.398Z,18.52
2024-02-10T06:12:47.697Z,18.52
2024-02-10T06:15:14.694Z,18.52
2024-02-10T06:17:42.374Z,18.50
2024-02-10T06:20:15.703Z,18.51
2024-02-10T06:22:43.496Z,18.50
2024-02-10T06:25:13.875Z,18.50
2024-02-10T06:27:46.823Z,18.50
2024-02-10T06:30:15.599Z,18.49
2024-02-10T06:32:42.500Z,18.48
2024-02-10T06:35:11.056Z,18.48
2024-02-10T06:37:43.717Z,18.47
2024-02-10T06:40:15.433Z,18.48
2024-02-10T06:42:44.264Z,18.47
2024-02-10T06:45:22.093Z,18.47
2024-02-10T06:47:51.105Z,18.47
2024-02-10T06:50:29.081Z,18.46
2024-02-10T06:52:56.654Z,18.46
2024-02-10T06:55:28.371Z,18.45
2024-02-10T06:57:58.744Z,18.45
2024-02-10T07:00:25.973Z,18.45
2024-02-10T07:02:52.900Z,18.45
2024-02-10T07:05:20.896Z,18.45
2024-02-10T07:10:19.132Z,18.44
2024-02-10T07:12:48.262Z,18.44
2024-02-10T07:15:20.302Z,18.43
2024-02-10T07:17:48.717Z,18.43
2024-02-10T07:20:21.250Z,18.42
2024-02-10T07:22:56.317Z,18.40
2024-02-10T07:25:24.362Z,18.39
2024-02-10T07:27:51.752Z,18.41
2024-02-10T07:30:19.555Z,18.39
2024-02-10T07:32:49.649Z,18.40
2024-02-10T07:35:23.440Z,18.38
2024-02-10T07:37:53.451Z,18.39
2024-02-10T07:40:20.459Z,18.39
2024-02-10T07:42:47.576Z,18.40
2024-02-10T07:45:14.162Z,18.42
2024-02-10T07:47:40.726Z,18.42
2024-02-10T07:50:08.123Z,18.43
2024-02-10T07:52:34.828Z,18.44
2024-02-10T07:55:01.961Z,18.45
2024-02-10T07:57:30.381Z,18.45
2024-02-10T07:59:57.983Z,18.46
2024-02-10T08:02:28.783Z,18.46
2024-02-10T08:04:58.313Z,18.47
2024-02-10T08:07:31.081Z,18.46
2024-02-10T08:09:59.608Z,18.47
2024-02-10T08:12:27.070Z,18.48
2024-02-10T08:14:58.456Z,18.48
2024-02-10T08:17:28.087Z,18.49
2024-02-10T08:19:58.318Z,18.50
2024-02-10T08:22:32.311Z,18.53
2024-02-10T08:25:00.121Z,18.57
2024-02-10T08:27:29.941Z,18.61
2024-02-10T08:29:57.749Z,18.67
2024-02-10T08:32:25.899Z,18.70
2024-02-10T08:34:52.825Z,18.72
2024-02-10T08:37:19.749Z,18.78
2024-02-10T08:39:46.781Z,18.80
2024-02-10T08:42:14.268Z,18.86
2024-02-10T08:44:41.764Z,18.91
2024-02-10T08:47:08.620Z,18.96
2024-02-10T08:49:36.328Z,18.99
2024-02-10T08:52:11.539Z,19.04
2024-02-10T08:54:43.209Z,19.07
2024-02-10T08:57:14.328Z,19.13
2024-02-10T08:59:43.019Z,19.16
2024-02-10T09:02:10.152Z,19.19
2024-02-10T09:04:40.057Z,19.21
2024-02-10T09:07:08.070Z,19.25
2024-02-10T09:09:35.283Z,19.28
2024-02-10T09:12:02.131Z,19.33
2024-02-10T09:14:31.213Z,19.37
2024-02-10T09:16:58.054Z,19.38
2024-02-10T09:19:24.904Z,19.41
2024-02-10T09:21:56.471Z,19.40
2024-02-10T09:24:24.932Z,19.40
2024-02-10T09:26:51.722Z,19.38
2024-02-10T09:29:19.785Z,19.41
2024-02-10T09:31:47.133Z,19.41
2024-02-10T09:34:13.915Z,19.42
2024-02-10T09:36:44.573Z,19.42
2024-02-10T09:39:14.138Z,19.40
2024-02-10T09:41:41.353Z,19.43
2024-02-10T09:44:12.108Z,19.43
2024-02-10T09:46:39.741Z,19.43
2024-02-10T09:49:11.313Z,19.46
2024-02-10T09:51:43.511Z,19.45
2024-02-10T09:54:16.732Z,19.43
2024-02-10T09:56:45.213Z,19.43
2024-02-10T09:59:19.682Z,19.40
2024-02-10T10:01:46.883Z,19.41
2024-02-10T10:04:13.854Z,19.41
2024-02-10T10:06:44.896Z,19.41
2024-02-10T10:09:14.003Z,19.41
2024-02-10T10:11:42.136Z,19.40
2024-02-10T10:14:09.672Z,19.42
2024-02-10T10:16:36.439Z,19.43
2024-02-10T10:19:03.698Z,19.41
2024-02-10T10:21:33.277Z,19.41
2024-02-10T10:24:03.342Z,19.41
2024-02-10T10:26:29.863Z,19.40
2024-02-10T10:28:56.733Z,19.40
2024-02-10T10:31:25.161Z,19.40
2024-02-10T10:33:52.349Z,19.41
2024-02-10T10:36:19.030Z,19.39
2024-02-10T10:38:46.099Z,19.41
2024-02-10T10:41:23.533Z,19.42
2024-02-10T10:43:52.303Z,19.40
2024-02-10T10:46:20.871Z,19.40
2024-02-10T10:48:50.704Z,19.39
2024-02-10T10:51:22.733Z,19.41
2024-02-10T10:53:50.907Z,19.42
2024-02-10T10:56:23.549Z,19.41
2024-02-10T10:58:56.861Z,19.41
2024-02-10T11:01:24.760Z,19.40
2024-02-10T11:03:56.385Z,19.39
2024-02-10T11:06:24.033Z,19.40
2024-02-10T11:08:55.247Z,19.38
2024-02-10T11:11:22.189Z,19.39
2024-02-10T11:13:49.073Z,19.39
2024-02-10T11:16:16.386Z,19.38
2024-02-10T11:18:45.332Z,19.39
2024-02-10T11:21:17.617Z,19.38
2024-02-10T11:23:44.138Z,19.38
2024-02-10T11:26:12.126Z,19.37
2024-02-10T11:28:39.403Z,19.37
2024-02-10T11:31:10.759Z,19.37
2024-02-10T11:33:39.944Z,19.35
2024-02-10T11:36:11.969Z,19.36
2024-02-10T11:38:39.115Z,19.35
2024-02-10T11:41:06.547Z,19.34
2024-02-10T11:43:34.677Z,19.35
2024-02-10T11:46:01.617Z,19.36
2024-02-10T11:48:29.639Z,19.36
2024-02-10T11:51:03.576Z,19.34
2024-02-10T11:53:32.890Z,19.35
2024-02-10T11:56:06.671Z,19.35
2024-02-10T11:58:33.518Z,19.35
2024-02-10T12:01:00.143Z,19.35
2024-02-10T12:03:26.810Z,19.35
2024-02-10T12:05:54.197Z,19.35
2024-02-10T12:08:21.566Z,19.36
2024-02-10T12:10:48.219Z,19.33
2024-02-10T12:13:20.125Z,19.34
2024-02-10T12:15:46.779Z,19.34
2024-02-10T12:18:14.755Z,19.33
2024-02-10T12:20:42.050Z,19.34
2024-02-10T12:23:08.579Z,19.32
2024-02-10T12:25:36.168Z,19.33
2024-02-10T12:28:02.787Z,19.33
2024-02-10T12:30:29.328Z,19.30
2024-02-10T12:32:55.978Z,19.30
2024-02-10T12:35:22.928Z,19.28
2024-02-10T12:37:50.286Z,19.28
2024-02-10T12:40:18.566Z,19.29
2024-02-10T12:42:45.315Z,19.27
2024-02-10T12:45:15.740Z,19.27
2024-02-10T12:47:44.586Z,19.24
2024-02-10T12:50:11.765Z,19.25
2024-02-10T12:52:39.455Z,19.24
2024-02-10T12:55:10.941Z,19.22
2024-02-10T12:57:39.353Z,19.23
2024-02-10T13:00:21.307Z,19.22
2024-02-10T13:02:52.417Z,19.22
2024-02-10T13:05:21.527Z,19.21
2024-02-10T13:07:48.489Z,19.20
2024-02-10T13:10:21.710Z,19.20
2024-02-10T13:12:54.737Z,19.19
2024-02-10T13:15:24.714Z,19.19
2024-02-10T13:17:53.001Z,19.19
2024-02-10T13:20:21.395Z,19.20
2024-02-10T13:22:48.913Z,19.22
2024-02-10T13:25:16.661Z,19.22
2024-02-10T13:27:44.763Z,19.22
2024-02-10T13:30:12.599Z,19.21
2024-02-10T13:32:40.692Z,19.21
2024-02-10T13:35:18.699Z,19.21
2024-02-10T13:38:06.133Z,19.21
2024-02-10T13:40:52.329Z,19.22
2024-02-10T13:43:38.578Z,19.19
2024-02-10T13:46:24.085Z,19.19
2024-02-10T13:49:09.438Z,19.19
2024-02-10T13:51:54.375Z,19.19
2024-02-10T13:54:39.461Z,19.19
2024-02-10T13:57:24.608Z,19.19
2024-02-10T13:59:51.053Z,19.19
2024-02-10T14:02:17.777Z,19.19
2024-02-10T14:04:48.514Z,19.18
2024-02-10T14:07:32.199Z,19.18
2024-02-10T14:10:11.925Z,19.18
2024-02-10T14:12:46.295Z,19.16
2024-02-10T14:15:21.819Z,19.17
2024-02-10T14:17:49.004Z,19.16
2024-02-10T14:20:27.170Z,19.18
2024-02-10T14:22:55.299Z,19.16
2024-02-10T14:25:26.797Z,19.17
2024-02-10T14:28:00.605Z,19.16
2024-02-10T14:30:39.101Z,19.15
2024-02-10T14:33:09.454Z,19.15
2024-02-10T14:35:45.929Z,19.15
2024-02-10T14:38:25.275Z,19.16
2024-02-10T14:40:55.257Z,19.15
2024-02-10T14:43:22.386Z,19.13
2024-02-10T14:45:49.025Z,19.14
2024-02-10T14:48:17.002Z,19.14
2024-02-10T14:50:44.744Z,19.13
2024-02-10T14:53:11.996Z,19.13
2024-02-10T14:55:39.550Z,19.11
2024-02-10T14:58:09.378Z,19.12
2024-02-10T15:00:37.360Z,19.12
2024-02-10T15:03:10.198Z,19.12
2024-02-10T15:05:39.769Z,19.09
2024-02-10T15:08:07.125Z,19.10
2024-02-10T15:10:34.044Z,19.10
2024-02-10T15:13:05.953Z,19.08
2024-02-10T15:15:34.209Z,19.08
2024-02-10T15:18:02.739Z,19.08
2024-02-10T15:20:29.725Z,19.07
2024-02-10T15:22:56.644Z,19.06
2024-02-10T15:25:25.390Z,19.06
2024-02-10T15:27:52.014Z,19.08
2024-02-10T15:30:18.631Z,19.05
2024-02-10T15:32:47.616Z,19.07
2024-02-10T15:35:15.309Z,19.07
2024-02-10T15:37:42.382Z,19.09
2024-02-10T15:40:21.871Z,19.09
2024-02-10T15:42:50.225Z,19.11
2024-02-10T15:45:16.980Z,19.13
2024-02-10T15:47:43.877Z,19.12
2024-02-10T15:50:10.710Z,19.14
2024-02-10T15:52:37.369Z,19.17
2024-02-10T15:55:04.763Z,19.20
2024-02-10T15:57:31.635Z,19.22
2024-02-10T15:59:58.121Z,19.25
2024-02-10T16:02:27.291Z,19.26
2024-02-10T16:04:54.321Z,19.30
2024-02-10T16:07:22.687Z,19.33
2024-02-10T16:09:49.426Z,19.35
2024-02-10T16:12:17.905Z,19.40
2024-02-10T16:14:44.753Z,19.43
2024-02-10T16:17:15.327Z,19.44
2024-02-10T16:19:46.131Z,19.48
2024-02-10T16:22:12.825Z,19.48
2024-02-10T16:24:41.264Z,19.51
2024-02-10T16:27:07.898Z,19.55
2024-02-10T16:29:34.419Z,19.53
2024-02-10T16:32:00.905Z,19.55
2024-02-10T16:34:30.600Z,19.58
2024-02-10T16:36:59.427Z,19.60
2024-02-10T16:39:25.965Z,19.61
2024-02-10T16:41:53.895Z,19.63
2024-02-10T16:44:20.579Z,19.63
2024-02-10T16:46:48.027Z,19.65
2024-02-10T16:49:15.844Z,19.66
2024-02-10T16:51:42.741Z,19.67
2024-02-10T16:54:12.590Z,19.66
2024-02-10T16:56:40.256Z,19.68
2024-02-10T16:59:08.591Z,19.69
2024-02-10T17:01:35.423Z,19.70
2024-02-10T17:04:05.103Z,19.72
2024-02-10T17:06:36.651Z,19.72
2024-02-10T17:09:05.387Z,19.74
2024-02-10T17:11:31.984Z,19.74
2024-02-10T17:13:59.729Z,19.76
2024-02-10T17:16:26.323Z,19.78
2024-02-10T17:18:52.915Z,19.79
2024-02-10T17:21:19.522Z,19.82
2024-02-10T17:23:46.892Z,19.84
2024-02-10T17:26:14.128Z,19.84
2024-02-10T17:28:41.748Z,19.83
2024-02-10T17:31:11.810Z,19.83
2024-02-10T17:33:41.824Z,19.85
2024-02-10T17:36:13.889Z,19.87
2024-02-10T17:38:40.582Z,19.89
2024-02-10T17:41:13.539Z,19.93
2024-02-10T17:43:41.120Z,19.96
2024-02-10T17:46:07.926Z,20.01
2024-02-10T17:48:35.443Z,20.04
2024-02-10T17:51:02.203Z,20.15
2024-02-10T17:53:30.038Z,20.21
2024-02-10T17:56:00.647Z,20.27
2024-02-10T17:58:32.209Z,20.29
2024-02-10T18:00:59.800Z,20.37
2024-02-10T18:03:26.769Z,20.41
2024-02-10T18:05:55.421Z,20.43
2024-02-10T18:08:22.780Z,20.42
2024-02-10T18:10:50.171Z,20.40
2024-02-10T18:13:24.048Z,20.38
2024-02-10T18:15:51.978Z,20.36
2024-02-10T18:18:19.334Z,20.36
2024-02-10T18:20:47.797Z,20.34
2024-02-10T18:23:14.684Z,20.34
2024-02-10T18:25:43.070Z,20.35
2024-02-10T18:28:12.329Z,20.35
2024-02-10T18:30:39.678Z,20.35
2024-02-10T18:33:06.370Z,20.36
2024-02-10T18:35:32.949Z,20.35
2024-02-10T18:38:02.199Z,20.37
2024-02-10T18:40:30.862Z,20.34
2024-02-10T18:42:59.277Z,20.35
2024-02-10T18:45:28.327Z,20.34
2024-02-10T18:47:55.476Z,20.35
2024-02-10T18:50:22.481Z,20.35
2024-02-10T18:52:49.946Z,20.36
2024-02-10T18:55:20.136Z,20.38
2024-02-10T18:57:47.348Z,20.36
2024-02-10T19:00:17.955Z,20.37
2024-02-10T19:02:44.482Z,20.36
2024-02-10T19:05:10.988Z,20.35
2024-02-10T19:07:38.544Z,20.34
2024-02-10T19:10:08.173Z,20.34
2024-02-10T19:12:38.704Z,20.35
2024-02-10T19:15:08.521Z,20.35
2024-02-10T19:17:38.338Z,20.33
2024-02-10T19:20:09.013Z,20.34
2024-02-10T19:22:36.878Z,20.34
2024-02-10T19:25:10.343Z,20.32
2024-02-10T19:27:39.624Z,20.31
2024-02-10T19:30:10.986Z,20.33
2024-02-10T19:32:41.850Z,20.32
2024-02-10T19:35:22.602Z,20.32
2024-02-10T19:37:50.324Z,20.32
2024-02-10T19:40:18.981Z,20.32
2024-02-10T19:42:46.791Z,20.32
2024-02-10T19:45:15.290Z,20.31
2024-02-10T19:47:43.615Z,20.32
2024-02-10T19:50:10.301Z,20.32
2024-02-10T19:52:37.086Z,20.30
2024-02-10T19:55:03.933Z,20.31
2024-02-10T19:57:30.761Z,20.28
2024-02-10T19:59:57.924Z,20.28
2024-02-10T20:02:24.713Z,20.29
2024-02-10T20:04:51.965Z,20.28
2024-02-10T20:07:21.503Z,20.29
2024-02-10T20:09:48.947Z,20.28
2024-02-10T20:12:16.861Z,20.27
2024-02-10T20:14:43.829Z,20.25
2024-02-10T20:17:11.627Z,20.27
2024-02-10T20:19:39.761Z,20.26
2024-02-10T20:22:09.809Z,20.26
2024-02-10T20:24:37.898Z,20.25
2024-02-10T20:27:10.201Z,20.24
2024-02-10T20:29:39.675Z,20.23
2024-02-10T20:32:06.796Z,20.22
2024-02-10T20:34:36.402Z,20.22
2024-02-10T20:37:10.445Z,20.20
2024-02-10T20:39:40.098Z,20.22
2024-02-10T20:42:09.187Z,20.21
2024-02-10T20:44:38.127Z,20.20
2024-02-10T20:47:06.866Z,20.20
2024-02-10T20:49:37.584Z,20.21
2024-02-10T20:52:06.278Z,20.17
2024-02-10T20:54:36.744Z,20.19
2024-02-10T20:57:03.522Z,20.17
2024-02-10T20:59:30.314Z,20.16
2024-02-10T21:01:57.537Z,20.17
2024-02-10T21:04:24.258Z,20.17
2024-02-10T21:06:53.883Z,20.16
2024-02-10T21:09:26.657Z,20.17
2024-02-10T21:11:53.173Z,20.15
2024-02-10T21:14:19.721Z,20.15
2024-02-10T21:16:47.854Z,20.14
2024-02-10T21:19:14.950Z,20.13
2024-02-10T21:21:42.634Z,20.12
2024-02-10T21:24:09.857Z,20.10
2024-02-10T21:26:37.456Z,20.11
2024-02-10T21:29:07.284Z,20.12
2024-02-10T21:31:37.455Z,20.10
2024-02-10T21:34:05.822Z,20.10
2024-02-10T21:36:35.376Z,20.09
2024-02-10T21:39:05.789Z,20.09
2024-02-10T21:41:32.360Z,20.07
2024-02-10T21:43:58.966Z,20.08
2024-02-10T21:46:27.496Z,20.07
2024-02-10T21:48:54.338Z,20.06
2024-02-10T21:51:21.129Z,20.05
2024-02-10T21:53:47.689Z,20.04
2024-02-10T21:56:14.862Z,20.03
2024-02-10T21:58:43.812Z,20.04
2024-02-10T22:01:12.436Z,20.03
2024-02-10T22:03:39.074Z,20.04
2024-02-10T22:06:05.847Z,20.03
2024-02-10T22:08:32.693Z,20.03
2024-02-10T22:10:59.280Z,20.03
2024-02-10T22:13:27.560Z,20.02
2024-02-10T22:15:54.029Z,20.03
2024-02-10T22:18:22.744Z,20.00
2024-02-10T22:20:50.030Z,20.00
2024-02-10T22:23:16.764Z,19.97
2024-02-10T22:25:46.410Z,19.95
2024-02-10T22:28:13.188Z,19.96
2024-02-10T22:30:40.900Z,19.94
2024-02-10T22:33:07.895Z,19.94
2024-02-10T22:35:38.436Z,19.90
2024-02-10T22:38:08.151Z,19.90
2024-02-10T22:40:41.434Z,19.90
2024-02-10T22:43:10.806Z,19.88
2024-02-10T22:45:38.517Z,19.88
2024-02-10T22:48:11.306Z,19.87
2024-02-10T22:50:38.782Z,19.85
2024-02-10T22:53:05.658Z,19.86
2024-02-10T22:55:37.096Z,19.85
2024-02-10T22:58:08.537Z,19.84
2024-02-10T23:00:44.523Z,19.83
2024-02-10T23:03:13.129Z,19.80
2024-02-10T23:05:39.840Z,19.78
2024-02-10T23:08:08.154Z,19.80
2024-02-10T23:10:34.904Z,19.79
2024-02-10T23:13:16.542Z,19.77
2024-02-10T23:15:44.289Z,19.78
2024-02-10T23:18:11.841Z,19.76
2024-02-10T23:20:42.339Z,19.75
2024-02-10T23:23:14.411Z,19.74
2024-02-10T23:25:45.176Z,19.74
2024-02-10T23:28:15.869Z,19.74
2024-02-10T23:30:50.931Z,19.71
2024-02-10T23:33:24.028Z,19.71
2024-02-10T23:35:51.786Z,19.71
2024-02-10T23:38:18.509Z,19.69
2024-02-10T23:40:45.928Z,19.70
2024-02-10T23:43:15.987Z,19.68
2024-02-10T23:45:43.442Z,19.69
2024-02-10T23:48:13.272Z,19.68
2024-02-10T23:50:39.985Z,19.68
2024-02-10T23:53:06.728Z,19.67
2024-02-10T23:55:38.051Z,19.67
2024-02-10T23:58:05.895Z,19.65
